Time;durP1;ratioP1;P1;durP2;ratioP2;P2;SDS_P1;SDS_P2;PMS_P1;PMS_P2;Temp;Humidity;BMP_temperature;BMP_pressure;BME280_temperature;BME280_humidity;BME280_pressure;Samples;Min_cycle;Max_cycle;Signal;HPM_P1;HPM_P2
2024/01/26 00:01:57;;;;;;;66.68;34.67;;;;;;;;;;5072557;28;20045;-77
2024/01/26 00:04:23;;;;;;;68.13;35.92;;;;;;;;;;5072363;28;20032;-77
2024/01/26 00:06:49;;;;;;;69.32;36.42;;;;;;;;;;5072467;28;20021;-78
2024/01/26 00:09:15;;;;;;;64.85;36.60;;;;;;;;;;5072392;28;20541;-78
2024/01/26 00:11:42;;;;;;;75.18;40.17;;;;;;;;;;5072127;28;20023;-77
2024/01/26 00:14:08;;;;;;;74.47;41.30;;;;;;;;;;5072512;28;20110;-77
2024/01/26 00:16:34;;;;;;;72.78;39.83;;;;;;;;;;5071855;28;20021;-78
2024/01/26 00:19:00;;;;;;;50.38;28.98;;;;;;;;;;5072139;28;20047;-79
2024/01/26 00:21:27;;;;;;;73.70;38.58;;;;;;;;;;5072157;28;20029;-77
2024/01/26 00:23:53;;;;;;;66.05;36.63;;;;;;;;;;5072150;28;20051;-78
2024/01/26 00:26:19;;;;;;;62.20;33.20;;;;;;;;;;5072026;28;20590;-79
2024/01/26 00:28:45;;;;;;;70.18;38.22;;;;;;;;;;5071739;28;20123;-78
2024/01/26 00:31:18;;;;;;;61.75;34.17;;;;;;;;;;5072046;28;20024;-78
2024/01/26 00:33:45;;;;;;;65.47;36.80;;;;;;;;;;5073087;28;20146;-78
2024/01/26 00:36:12;;;;;;;66.95;35.55;;;;;;;;;;5071903;28;20020;-77
2024/01/26 00:38:38;;;;;;;59.20;34.50;;;;;;;;;;5071929;28;20040;-78
2024/01/26 00:41:04;;;;;;;67.88;38.28;;;;;;;;;;5072213;28;20031;-79
2024/01/26 00:43:30;;;;;;;62.80;34.03;;;;;;;;;;5071197;28;20024;-78
2024/01/26 00:45:56;;;;;;;60.80;32.92;;;;;;;;;;5071941;28;20025;-78
2024/01/26 00:48:22;;;;;;;51.28;29.00;;;;;;;;;;5071851;28;20036;-79
2024/01/26 00:50:51;;;;;;;51.67;29.77;;;;;;;;;;5071489;28;20032;-78
2024/01/26 00:53:20;;;;;;;63.72;38.50;;;;;;;;;;5071869;28;20021;-79
2024/01/26 00:55:46;;;;;;;77.03;40.83;;;;;;;;;;5071057;28;20521;-78
2024/01/26 00:58:13;;;;;;;52.97;28.98;;;;;;;;;;5073173;28;20021;-79
2024/01/26 01:00:39;;;;;;;57.17;34.35;;;;;;;;;;5071474;28;20367;-77
2024/01/26 01:03:05;;;;;;;62.90;38.53;;;;;;;;;;5071248;28;20045;-76
2024/01/26 01:05:31;;;;;;;62.63;37.80;;;;;;;;;;5071381;28;20031;-77
2024/01/26 01:07:57;;;;;;;64.70;38.60;;;;;;;;;;5071541;28;20029;-78
2024/01/26 01:10:23;;;;;;;58.35;34.17;;;;;;;;;;5072590;28;20543;-78
2024/01/26 01:12:49;;;;;;;40.42;24.85;;;;;;;;;;5071794;28;20017;-78
2024/01/26 01:15:17;;;;;;;59.58;35.25;;;;;;;;;;5071948;28;20456;-78
2024/01/26 01:17:43;;;;;;;56.20;33.58;;;;;;;;;;5071410;28;20024;-77
2024/01/26 01:20:10;;;;;;;55.30;31.10;;;;;;;;;;5073441;28;20031;-76
2024/01/26 01:22:37;;;;;;;57.95;34.53;;;;;;;;;;5071775;28;20032;-76
2024/01/26 01:25:03;;;;;;;52.97;31.80;;;;;;;;;;5071378;28;20060;-76
2024/01/26 01:27:31;;;;;;;49.38;31.10;;;;;;;;;;5071096;28;20038;-78
2024/01/26 01:29:57;;;;;;;47.38;30.08;;;;;;;;;;5072494;28;20473;-77
2024/01/26 01:32:23;;;;;;;55.50;31.70;;;;;;;;;;5071361;28;20028;-78
2024/01/26 01:34:49;;;;;;;61.25;38.80;;;;;;;;;;5071409;28;20027;-78
2024/01/26 01:37:16;;;;;;;52.33;32.92;;;;;;;;;;5071225;28;20043;-77
2024/01/26 01:39:42;;;;;;;47.42;28.05;;;;;;;;;;5071324;28;20025;-80
2024/01/26 01:42:14;;;;;;;54.70;32.58;;;;;;;;;;5071360;28;20052;-80
2024/01/26 01:44:49;;;;;;;46.78;28.90;;;;;;;;;;5071015;28;20029;-78
2024/01/26 01:47:15;;;;;;;44.10;29.85;;;;;;;;;;5071610;28;20120;-78
2024/01/26 01:49:42;;;;;;;46.70;28.27;;;;;;;;;;5071982;28;20025;-78
2024/01/26 01:52:09;;;;;;;46.47;29.00;;;;;;;;;;5070938;28;20534;-80
2024/01/26 01:54:35;;;;;;;55.45;34.67;;;;;;;;;;5070772;28;20021;-80
2024/01/26 01:57:05;;;;;;;36.85;23.90;;;;;;;;;;5072477;28;20468;-79
2024/01/26 01:59:31;;;;;;;40.22;25.63;;;;;;;;;;5072418;28;20024;-77
2024/01/26 02:01:57;;;;;;;30.13;22.27;;;;;;;;;;5071665;28;20102;-78
2024/01/26 02:04:23;;;;;;;33.20;22.35;;;;;;;;;;5071284;28;20472;-77
2024/01/26 02:07:03;;;;;;;44.17;28.80;;;;;;;;;;5073736;28;20020;-77
2024/01/26 02:09:29;;;;;;;31.63;21.67;;;;;;;;;;5074827;28;20031;-78
2024/01/26 02:11:56;;;;;;;34.08;22.40;;;;;;;;;;5075232;28;20024;-78
2024/01/26 02:14:22;;;;;;;44.42;28.05;;;;;;;;;;5074580;28;20033;-78
2024/01/26 02:16:55;;;;;;;44.53;30.00;;;;;;;;;;5074296;28;20120;-78
2024/01/26 02:19:22;;;;;;;32.17;22.30;;;;;;;;;;5074460;28;20033;-79
2024/01/26 02:21:48;;;;;;;46.95;30.35;;;;;;;;;;5074352;28;20036;-79
2024/01/26 02:24:14;;;;;;;45.45;30.23;;;;;;;;;;5075909;28;20108;-77
2024/01/26 02:26:41;;;;;;;34.42;22.15;;;;;;;;;;5074497;28;20024;-78
2024/01/26 02:29:07;;;;;;;44.85;28.50;;;;;;;;;;5074321;28;20060;-77
2024/01/26 02:31:33;;;;;;;33.60;23.30;;;;;;;;;;5075809;28;20464;-78
2024/01/26 02:33:59;;;;;;;42.47;27.58;;;;;;;;;;5074590;28;20528;-79
2024/01/26 02:36:27;;;;;;;39.05;25.73;;;;;;;;;;5074448;28;20456;-79
2024/01/26 02:38:53;;;;;;;45.67;30.35;;;;;;;;;;5075335;28;20025;-80
2024/01/26 02:41:19;;;;;;;31.23;20.98;;;;;;;;;;5074526;28;20044;-78
2024/01/26 02:43:45;;;;;;;30.10;21.40;;;;;;;;;;5073696;28;20024;-78
2024/01/26 02:46:11;;;;;;;35.95;24.40;;;;;;;;;;5073944;28;20028;-78
2024/01/26 02:48:37;;;;;;;36.15;23.58;;;;;;;;;;5074011;28;20486;-78
2024/01/26 02:51:04;;;;;;;40.83;25.70;;;;;;;;;;5075772;28;20032;-78
2024/01/26 02:53:30;;;;;;;30.33;22.08;;;;;;;;;;5074307;28;20032;-79
2024/01/26 02:55:56;;;;;;;32.85;23.13;;;;;;;;;;5074006;28;20034;-79
2024/01/26 02:58:22;;;;;;;29.98;19.92;;;;;;;;;;5074254;28;20016;-79
2024/01/26 03:00:48;;;;;;;29.98;20.50;;;;;;;;;;5073599;28;20448;-80
2024/01/26 03:03:14;;;;;;;33.40;23.38;;;;;;;;;;5073699;28;20373;-79
2024/01/26 03:05:40;;;;;;;28.13;20.20;;;;;;;;;;5073924;28;20029;-78
2024/01/26 03:08:06;;;;;;;29.88;20.27;;;;;;;;;;5074187;28;20070;-76
2024/01/26 03:10:32;;;;;;;22.52;16.33;;;;;;;;;;5075979;28;20028;-78
2024/01/26 03:12:58;;;;;;;23.02;16.45;;;;;;;;;;5074779;28;20029;-78
2024/01/26 03:15:24;;;;;;;27.63;17.50;;;;;;;;;;5075681;28;20025;-77
2024/01/26 03:17:50;;;;;;;19.80;13.05;;;;;;;;;;5074228;28;20035;-78
2024/01/26 03:20:17;;;;;;;18.08;12.35;;;;;;;;;;5072607;28;20024;-77
2024/01/26 03:22:43;;;;;;;21.25;14.38;;;;;;;;;;5074440;28;20021;-77
2024/01/26 03:25:09;;;;;;;25.73;15.57;;;;;;;;;;5073585;28;20025;-78
2024/01/26 03:27:35;;;;;;;18.30;10.77;;;;;;;;;;5072962;28;20021;-77
2024/01/26 03:30:02;;;;;;;20.10;13.57;;;;;;;;;;5073095;28;20051;-77
2024/01/26 03:32:28;;;;;;;17.90;12.82;;;;;;;;;;5073285;28;20082;-78
2024/01/26 03:34:54;;;;;;;15.73;10.52;;;;;;;;;;5072767;28;20423;-77
2024/01/26 03:37:20;;;;;;;18.52;12.63;;;;;;;;;;5073005;28;20036;-78
2024/01/26 03:39:46;;;;;;;16.20;11.93;;;;;;;;;;5072616;28;20054;-77
2024/01/26 03:42:12;;;;;;;19.10;12.18;;;;;;;;;;5074053;28;20469;-77
2024/01/26 03:44:39;;;;;;;19.85;12.98;;;;;;;;;;5072569;28;20070;-77
2024/01/26 03:47:06;;;;;;;14.57;11.02;;;;;;;;;;5072893;28;20024;-78
2024/01/26 03:49:32;;;;;;;13.63;9.32;;;;;;;;;;5073358;28;20058;-78
2024/01/26 03:51:58;;;;;;;12.70;8.73;;;;;;;;;;5074670;28;20100;-79
2024/01/26 03:54:24;;;;;;;15.70;10.88;;;;;;;;;;5074968;28;20047;-79
2024/01/26 03:56:50;;;;;;;15.88;11.50;;;;;;;;;;5073281;28;20361;-81
2024/01/26 03:59:16;;;;;;;17.48;11.65;;;;;;;;;;5073422;28;20503;-82
2024/01/26 04:01:43;;;;;;;17.17;10.18;;;;;;;;;;5073153;28;20045;-80
2024/01/26 04:04:09;;;;;;;14.60;9.55;;;;;;;;;;5073286;28;20028;-81
2024/01/26 04:06:42;;;;;;;19.45;10.43;;;;;;;;;;5074053;28;20025;-81
2024/01/26 04:09:12;;;;;;;14.52;9.25;;;;;;;;;;5073876;28;20179;-80
2024/01/26 04:11:38;;;;;;;12.82;8.60;;;;;;;;;;5072233;28;20032;-77
2024/01/26 04:14:04;;;;;;;13.38;8.77;;;;;;;;;;5072290;28;20028;-77
2024/01/26 04:16:31;;;;;;;13.25;8.93;;;;;;;;;;5073642;28;20021;-77
2024/01/26 04:18:57;;;;;;;13.55;9.35;;;;;;;;;;5073268;28;20107;-78
2024/01/26 04:21:23;;;;;;;14.73;8.90;;;;;;;;;;5072484;28;20074;-79
2024/01/26 04:23:49;;;;;;;13.55;7.85;;;;;;;;;;5072508;28;20028;-78
2024/01/26 04:26:15;;;;;;;10.55;7.15;;;;;;;;;;5074060;28;20028;-78
2024/01/26 04:28:41;;;;;;;10.88;7.68;;;;;;;;;;5072356;28;20032;-78
2024/01/26 04:31:08;;;;;;;15.40;8.15;;;;;;;;;;5072083;28;20407;-80
2024/01/26 04:33:34;;;;;;;12.48;8.35;;;;;;;;;;5072224;28;20024;-79
2024/01/26 04:36:00;;;;;;;8.73;6.30;;;;;;;;;;5072061;28;20024;-80
2024/01/26 04:38:26;;;;;;;9.02;6.45;;;;;;;;;;5072361;28;20372;-79
2024/01/26 04:40:52;;;;;;;13.32;8.45;;;;;;;;;;5071434;28;20047;-79
2024/01/26 04:43:19;;;;;;;15.77;9.55;;;;;;;;;;5071861;28;20032;-78
2024/01/26 04:45:45;;;;;;;12.48;8.23;;;;;;;;;;5071462;28;20028;-78
2024/01/26 04:48:11;;;;;;;13.82;9.73;;;;;;;;;;5071704;28;20031;-79
2024/01/26 04:50:37;;;;;;;14.88;9.32;;;;;;;;;;5072823;28;20024;-77
2024/01/26 04:53:04;;;;;;;12.10;7.93;;;;;;;;;;5071763;28;20032;-78
2024/01/26 04:55:30;;;;;;;10.68;6.85;;;;;;;;;;5071724;28;20031;-78
2024/01/26 04:57:56;;;;;;;12.00;6.03;;;;;;;;;;5071397;28;20051;-77
2024/01/26 05:00:22;;;;;;;11.60;7.78;;;;;;;;;;5073103;28;20013;-79
2024/01/26 05:02:49;;;;;;;13.75;9.18;;;;;;;;;;5072963;28;20036;-79
2024/01/26 05:05:15;;;;;;;11.30;6.97;;;;;;;;;;5073784;28;20021;-77
2024/01/26 05:07:41;;;;;;;9.13;5.70;;;;;;;;;;5071052;28;20021;-77
2024/01/26 05:10:07;;;;;;;11.60;7.80;;;;;;;;;;5071763;28;20029;-77
2024/01/26 05:12:34;;;;;;;14.02;9.02;;;;;;;;;;5071809;28;20371;-78
2024/01/26 05:15:00;;;;;;;13.98;8.93;;;;;;;;;;5071531;28;20024;-77
2024/01/26 05:17:26;;;;;;;15.30;9.70;;;;;;;;;;5071907;28;20408;-79
2024/01/26 05:19:52;;;;;;;12.93;9.85;;;;;;;;;;5073088;28;20020;-79
2024/01/26 05:22:18;;;;;;;13.13;9.88;;;;;;;;;;5074410;28;20029;-77
2024/01/26 05:24:45;;;;;;;15.88;9.75;;;;;;;;;;5073347;28;20020;-78
2024/01/26 05:27:11;;;;;;;15.55;9.27;;;;;;;;;;5073596;28;20041;-77
2024/01/26 05:29:37;;;;;;;19.65;10.35;;;;;;;;;;5076736;28;20040;-77
2024/01/26 05:32:03;;;;;;;16.05;9.48;;;;;;;;;;5072370;28;20078;-79
2024/01/26 05:34:29;;;;;;;15.63;9.88;;;;;;;;;;5071881;28;20097;-78
2024/01/26 05:36:55;;;;;;;11.25;6.43;;;;;;;;;;5071327;28;20035;-78
2024/01/26 05:39:21;;;;;;;18.13;10.68;;;;;;;;;;5071742;28;20490;-78
2024/01/26 05:41:47;;;;;;;21.63;11.30;;;;;;;;;;5071671;28;20028;-80
2024/01/26 05:44:13;;;;;;;15.00;9.73;;;;;;;;;;5075944;28;20020;-80
2024/01/26 05:46:39;;;;;;;16.10;9.43;;;;;;;;;;5075539;28;20357;-79
2024/01/26 05:49:05;;;;;;;13.48;9.70;;;;;;;;;;5075396;28;20034;-82
2024/01/26 05:51:31;;;;;;;17.75;11.65;;;;;;;;;;5076205;28;20032;-82
2024/01/26 05:53:58;;;;;;;14.65;8.63;;;;;;;;;;5075903;28;20021;-82
2024/01/26 05:56:24;;;;;;;15.95;10.98;;;;;;;;;;5077102;28;20020;-82
2024/01/26 05:58:52;;;;;;;18.90;11.30;;;;;;;;;;5075425;28;20111;-79
2024/01/26 06:01:18;;;;;;;11.18;7.32;;;;;;;;;;5077200;28;20044;-78
2024/01/26 06:03:44;;;;;;;14.32;8.60;;;;;;;;;;5076856;28;20021;-79
2024/01/26 06:06:10;;;;;;;17.65;12.82;;;;;;;;;;5076256;28;20017;-79
2024/01/26 06:08:36;;;;;;;11.20;8.10;;;;;;;;;;5076764;28;20028;-81
2024/01/26 06:11:03;;;;;;;12.15;9.27;;;;;;;;;;5074809;28;20039;-79
2024/01/26 06:13:29;;;;;;;14.80;10.30;;;;;;;;;;5074934;28;20028;-80
2024/01/26 06:15:55;;;;;;;18.00;12.15;;;;;;;;;;5074774;28;20024;-79
2024/01/26 06:18:21;;;;;;;18.55;12.70;;;;;;;;;;5074597;28;20392;-79
2024/01/26 06:20:47;;;;;;;22.48;13.68;;;;;;;;;;5074363;28;20385;-79
2024/01/26 06:23:13;;;;;;;20.27;14.27;;;;;;;;;;5074422;28;20529;-79
2024/01/26 06:25:40;;;;;;;13.48;9.77;;;;;;;;;;5074456;28;20028;-78
2024/01/26 06:28:06;;;;;;;19.33;13.90;;;;;;;;;;5075358;28;20376;-80
2024/01/26 06:30:32;;;;;;;19.20;12.98;;;;;;;;;;5075699;28;20024;-79
2024/01/26 06:32:58;;;;;;;19.27;9.95;;;;;;;;;;5074279;28;20185;-79
2024/01/26 06:35:24;;;;;;;20.13;12.98;;;;;;;;;;5075704;28;20139;-79
2024/01/26 06:37:50;;;;;;;19.45;13.95;;;;;;;;;;5074300;28;20025;-80
2024/01/26 06:40:16;;;;;;;19.13;12.90;;;;;;;;;;5074677;28;20029;-80
2024/01/26 06:42:42;;;;;;;15.40;11.27;;;;;;;;;;5075534;28;20098;-78
2024/01/26 06:45:09;;;;;;;13.80;10.65;;;;;;;;;;5074995;28;20028;-78
2024/01/26 06:47:35;;;;;;;16.15;11.82;;;;;;;;;;5073877;28;20404;-78
2024/01/26 06:50:03;;;;;;;16.17;12.35;;;;;;;;;;5075115;28;20021;-79
2024/01/26 06:52:29;;;;;;;16.85;12.25;;;;;;;;;;5075152;28;20472;-78
2024/01/26 06:54:55;;;;;;;20.63;15.70;;;;;;;;;;5074343;28;20020;-79
2024/01/26 06:57:21;;;;;;;18.73;14.00;;;;;;;;;;5073963;28;20020;-79
2024/01/26 06:59:47;;;;;;;18.50;12.68;;;;;;;;;;5073606;28;20090;-78
2024/01/26 07:02:13;;;;;;;19.48;11.85;;;;;;;;;;5073606;28;20063;-80
2024/01/26 07:04:39;;;;;;;14.82;11.07;;;;;;;;;;5073907;28;20471;-79
2024/01/26 07:07:05;;;;;;;18.67;14.13;;;;;;;;;;5074981;28;20028;-79
2024/01/26 07:09:31;;;;;;;15.70;10.20;;;;;;;;;;5073611;28;20128;-80
2024/01/26 07:11:58;;;;;;;15.65;10.10;;;;;;;;;;5073886;28;20025;-79
2024/01/26 07:14:24;;;;;;;16.02;8.75;;;;;;;;;;5073254;28;20028;-79
2024/01/26 07:16:50;;;;;;;14.90;10.55;;;;;;;;;;5073491;28;20024;-78
2024/01/26 07:19:17;;;;;;;13.55;10.20;;;;;;;;;;5073693;28;20186;-79
2024/01/26 07:21:43;;;;;;;17.02;11.27;;;;;;;;;;5074833;28;20024;-80
2024/01/26 07:24:09;;;;;;;13.57;7.25;;;;;;;;;;5073548;28;20063;-79
2024/01/26 07:26:35;;;;;;;12.70;9.32;;;;;;;;;;5073735;28;20016;-81
2024/01/26 07:29:01;;;;;;;16.33;11.38;;;;;;;;;;5073528;28;20435;-80
2024/01/26 07:31:27;;;;;;;13.15;8.05;;;;;;;;;;5073478;28;20016;-79
2024/01/26 07:33:53;;;;;;;12.93;9.23;;;;;;;;;;5075892;28;20066;-78
2024/01/26 07:36:19;;;;;;;13.65;10.27;;;;;;;;;;5075539;28;20543;-76
2024/01/26 07:38:45;;;;;;;11.45;8.43;;;;;;;;;;5074978;28;20031;-77
2024/01/26 07:41:11;;;;;;;11.95;8.57;;;;;;;;;;5076473;28;20059;-79
2024/01/26 07:43:39;;;;;;;17.00;11.05;;;;;;;;;;5070938;28;20032;-78
2024/01/26 07:46:05;;;;;;;13.63;10.52;;;;;;;;;;5071567;28;20028;-79
2024/01/26 07:48:31;;;;;;;10.77;7.57;;;;;;;;;;5072980;28;20044;-78
2024/01/26 07:50:57;;;;;;;15.15;9.30;;;;;;;;;;5072550;28;20388;-79
2024/01/26 07:53:23;;;;;;;14.77;9.43;;;;;;;;;;5073027;28;20543;-78
2024/01/26 07:55:50;;;;;;;16.90;10.27;;;;;;;;;;5072549;28;20059;-78
2024/01/26 07:58:16;;;;;;;15.45;10.63;;;;;;;;;;5073146;28;20021;-78
2024/01/26 08:00:44;;;;;;;15.27;11.07;;;;;;;;;;5072930;28;20054;-78
2024/01/26 08:03:10;;;;;;;16.67;10.55;;;;;;;;;;5072504;28;20114;-79
2024/01/26 08:05:36;;;;;;;18.48;13.77;;;;;;;;;;5073535;28;20119;-79
2024/01/26 08:08:03;;;;;;;20.73;13.25;;;;;;;;;;5073668;28;20025;-79
2024/01/26 08:10:29;;;;;;;15.32;11.80;;;;;;;;;;5073906;28;20037;-78
2024/01/26 08:12:56;;;;;;;17.02;12.98;;;;;;;;;;5074640;28;20044;-78
2024/01/26 08:15:22;;;;;;;13.55;9.15;;;;;;;;;;5071952;28;20078;-78
2024/01/26 08:17:48;;;;;;;19.38;13.55;;;;;;;;;;5071882;28;20028;-79
2024/01/26 08:20:15;;;;;;;18.13;13.35;;;;;;;;;;5072015;28;20036;-78
2024/01/26 08:22:43;;;;;;;23.23;15.80;;;;;;;;;;5071814;28;20476;-78
2024/01/26 08:25:09;;;;;;;21.60;15.80;;;;;;;;;;5071857;28;20029;-79
2024/01/26 08:27:36;;;;;;;25.88;18.58;;;;;;;;;;5071815;28;20025;-80
2024/01/26 08:30:03;;;;;;;18.17;12.80;;;;;;;;;;5071557;28;20032;-79
2024/01/26 08:32:29;;;;;;;19.40;13.75;;;;;;;;;;5071822;28;20126;-80
2024/01/26 08:34:56;;;;;;;17.50;12.90;;;;;;;;;;5071091;28;20032;-79
2024/01/26 08:37:23;;;;;;;21.40;16.48;;;;;;;;;;5071526;28;20491;-79
2024/01/26 08:39:49;;;;;;;24.83;16.85;;;;;;;;;;5071384;28;20036;-80
2024/01/26 08:42:15;;;;;;;21.98;15.95;;;;;;;;;;5071293;28;20025;-79
2024/01/26 08:44:41;;;;;;;20.17;13.32;;;;;;;;;;5071272;28;20054;-80
2024/01/26 08:47:07;;;;;;;21.13;15.80;;;;;;;;;;5071299;28;20016;-79
2024/01/26 08:49:33;;;;;;;18.63;14.57;;;;;;;;;;5071425;28;20037;-80
2024/01/26 08:51:59;;;;;;;20.05;16.38;;;;;;;;;;5072623;28;20028;-80
2024/01/26 08:54:25;;;;;;;22.23;16.92;;;;;;;;;;5071359;28;20535;-80
2024/01/26 08:56:51;;;;;;;22.83;15.68;;;;;;;;;;5071543;28;20029;-80
2024/01/26 08:59:17;;;;;;;16.02;11.07;;;;;;;;;;5072505;28;20032;-79
2024/01/26 09:01:43;;;;;;;23.08;16.35;;;;;;;;;;5071293;28;20067;-79
2024/01/26 09:04:09;;;;;;;24.27;17.00;;;;;;;;;;5071162;28;20032;-79
2024/01/26 09:06:36;;;;;;;19.45;12.77;;;;;;;;;;5071056;28;20066;-78
2024/01/26 09:09:02;;;;;;;15.75;11.07;;;;;;;;;;5070556;28;20037;-81
2024/01/26 09:11:29;;;;;;;26.13;14.05;;;;;;;;;;5071117;28;20054;-77
2024/01/26 09:13:56;;;;;;;18.02;13.52;;;;;;;;;;5070672;28;20059;-78
2024/01/26 09:16:22;;;;;;;21.90;14.38;;;;;;;;;;5070501;28;20029;-76
2024/01/26 09:18:48;;;;;;;16.27;10.55;;;;;;;;;;5072030;28;20456;-81
2024/01/26 09:21:14;;;;;;;20.58;10.77;;;;;;;;;;5070951;28;20170;-84
2024/01/26 09:23:43;;;;;;;14.10;9.10;;;;;;;;;;5072226;28;20025;-81
2024/01/26 09:26:09;;;;;;;16.50;8.82;;;;;;;;;;5070887;28;20078;-79
2024/01/26 09:28:35;;;;;;;14.55;5.68;;;;;;;;;;5070886;28;20036;-78
2024/01/26 09:31:01;;;;;;;9.77;5.45;;;;;;;;;;5070692;28;20021;-79
2024/01/26 09:33:27;;;;;;;11.55;4.13;;;;;;;;;;5071002;28;20032;-79
2024/01/26 09:35:54;;;;;;;7.22;3.15;;;;;;;;;;5072018;28;20024;-78
2024/01/26 09:38:20;;;;;;;8.00;2.40;;;;;;;;;;5070908;28;20027;-77
2024/01/26 09:40:46;;;;;;;8.82;2.10;;;;;;;;;;5070832;28;20029;-77
2024/01/26 09:43:12;;;;;;;6.40;1.92;;;;;;;;;;5070626;28;20440;-77
2024/01/26 09:45:38;;;;;;;8.27;1.98;;;;;;;;;;5072270;28;20055;-77
2024/01/26 09:48:09;;;;;;;7.07;1.73;;;;;;;;;;5071084;28;20033;-76
2024/01/26 09:50:36;;;;;;;9.10;2.30;;;;;;;;;;5071652;28;20029;-77
2024/01/26 09:53:05;;;;;;;7.07;1.67;;;;;;;;;;5072526;28;20103;-76
2024/01/26 09:55:34;;;;;;;3.72;1.20;;;;;;;;;;5070863;28;20021;-78
2024/01/26 09:58:00;;;;;;;3.45;1.20;;;;;;;;;;5070322;28;20017;-78
2024/01/26 10:00:26;;;;;;;6.85;2.22;;;;;;;;;;5070893;28;20024;-80
2024/01/26 10:02:52;;;;;;;5.88;3.13;;;;;;;;;;5071632;28;20131;-76
2024/01/26 10:05:19;;;;;;;17.15;7.18;;;;;;;;;;5070743;28;20111;-77
2024/01/26 10:07:45;;;;;;;6.82;1.45;;;;;;;;;;5070983;28;20023;-76
2024/01/26 10:10:12;;;;;;;8.05;1.42;;;;;;;;;;5071516;28;20040;-76
2024/01/26 10:12:38;;;;;;;7.88;1.65;;;;;;;;;;5072443;28;20468;-77
2024/01/26 10:15:05;;;;;;;6.28;1.55;;;;;;;;;;5073133;28;20029;-76
2024/01/26 10:17:31;;;;;;;7.47;1.73;;;;;;;;;;5071024;28;20035;-75
2024/01/26 10:20:07;;;;;;;12.85;1.83;;;;;;;;;;5071404;28;20021;-77
2024/01/26 10:22:34;;;;;;;11.82;1.90;;;;;;;;;;5071458;28;20023;-76
2024/01/26 10:25:02;;;;;;;9.85;1.80;;;;;;;;;;5069867;28;20491;-75
2024/01/26 10:27:28;;;;;;;5.28;1.45;;;;;;;;;;5071585;28;20020;-77
2024/01/26 10:29:54;;;;;;;3.60;1.27;;;;;;;;;;5075028;28;20029;-78
2024/01/26 10:32:21;;;;;;;10.55;2.13;;;;;;;;;;5075485;28;20427;-79
2024/01/26 10:34:48;;;;;;;11.40;2.50;;;;;;;;;;5074031;28;20020;-78
2024/01/26 10:37:15;;;;;;;11.60;1.90;;;;;;;;;;5073733;28;20120;-78
2024/01/26 10:39:43;;;;;;;9.27;1.52;;;;;;;;;;5073865;28;20111;-79
2024/01/26 10:42:10;;;;;;;9.52;1.58;;;;;;;;;;5073631;28;20492;-77
2024/01/26 10:44:38;;;;;;;13.57;2.63;;;;;;;;;;5073964;28;20483;-80
2024/01/26 10:47:06;;;;;;;10.60;1.95;;;;;;;;;;5073658;28;20024;-82
2024/01/26 10:49:32;;;;;;;13.20;2.22;;;;;;;;;;5073366;28;20135;-78
2024/01/26 10:52:01;;;;;;;13.38;2.28;;;;;;;;;;5073290;28;20032;-78
2024/01/26 10:54:27;;;;;;;10.63;1.92;;;;;;;;;;5073687;28;20020;-77
2024/01/26 10:56:53;;;;;;;10.27;1.73;;;;;;;;;;5073331;28;20024;-77
2024/01/26 10:59:20;;;;;;;12.88;2.30;;;;;;;;;;5074370;28;20024;-77
2024/01/26 11:01:46;;;;;;;7.85;1.88;;;;;;;;;;5074759;28;20071;-78
2024/01/26 11:04:13;;;;;;;12.98;2.33;;;;;;;;;;5073280;28;20464;-78
2024/01/26 11:06:42;;;;;;;11.90;3.35;;;;;;;;;;5073528;28;20025;-79
2024/01/26 11:09:15;;;;;;;9.40;1.67;;;;;;;;;;5073305;28;20083;-80
2024/01/26 11:11:41;;;;;;;11.27;2.20;;;;;;;;;;5073371;28;20485;-80
2024/01/26 11:14:11;;;;;;;13.77;2.83;;;;;;;;;;5073143;28;20025;-80
2024/01/26 11:16:41;;;;;;;13.55;2.58;;;;;;;;;;5074522;28;20048;-77
2024/01/26 11:19:07;;;;;;;9.77;1.85;;;;;;;;;;5072881;28;20033;-80
2024/01/26 11:21:40;;;;;;;13.40;2.30;;;;;;;;;;5072974;28;20120;-78
2024/01/26 11:24:16;;;;;;;9.82;2.00;;;;;;;;;;5072570;28;20021;-80
2024/01/26 11:26:42;;;;;;;27.80;8.90;;;;;;;;;;5072718;28;20036;-77
2024/01/26 11:29:12;;;;;;;12.30;3.03;;;;;;;;;;5073823;28;20039;-78
2024/01/26 11:31:38;;;;;;;8.05;1.83;;;;;;;;;;5072845;28;20020;-78
2024/01/26 11:34:04;;;;;;;12.63;2.15;;;;;;;;;;5072754;28;20079;-78
2024/01/26 11:36:34;;;;;;;12.80;2.65;;;;;;;;;;5073733;28;20020;-79
2024/01/26 11:39:00;;;;;;;12.13;2.40;;;;;;;;;;5072587;28;20036;-78
2024/01/26 11:41:26;;;;;;;11.45;2.65;;;;;;;;;;5073663;28;20032;-79
2024/01/26 11:43:52;;;;;;;16.40;2.38;;;;;;;;;;5074371;28;20024;-76
2024/01/26 11:46:20;;;;;;;12.80;1.67;;;;;;;;;;5072547;28;20131;-79
2024/01/26 11:48:46;;;;;;;11.50;2.67;;;;;;;;;;5072483;28;20033;-78
2024/01/26 11:51:13;;;;;;;12.57;2.08;;;;;;;;;;5072321;28;20492;-79
2024/01/26 11:53:39;;;;;;;13.40;4.03;;;;;;;;;;5073683;28;20036;-81
2024/01/26 11:56:05;;;;;;;14.38;2.25;;;;;;;;;;5075815;28;20027;-79
2024/01/26 11:58:43;;;;;;;13.60;2.40;;;;;;;;;;5075042;28;20021;-81
2024/01/26 12:01:09;;;;;;;17.38;6.47;;;;;;;;;;5058785;28;20036;-80
2024/01/26 12:03:35;;;;;;;11.45;3.20;;;;;;;;;;5075691;28;20028;-79
2024/01/26 12:06:01;;;;;;;12.18;1.95;;;;;;;;;;5081683;28;20082;-77
2024/01/26 12:08:27;;;;;;;13.40;3.28;;;;;;;;;;5076091;28;20028;-79
2024/01/26 12:10:54;;;;;;;11.82;1.95;;;;;;;;;;5076321;28;20044;-80
2024/01/26 12:13:20;;;;;;;21.35;2.92;;;;;;;;;;5067890;28;20032;-78
2024/01/26 12:15:47;;;;;;;14.60;3.28;;;;;;;;;;5074958;28;20086;-78
2024/01/26 12:18:13;;;;;;;12.30;2.58;;;;;;;;;;5073641;28;20040;-78
2024/01/26 12:20:39;;;;;;;10.55;1.88;;;;;;;;;;5081088;28;20040;-82
2024/01/26 12:23:05;;;;;;;14.88;2.40;;;;;;;;;;5072402;28;20028;-79
2024/01/26 12:25:31;;;;;;;23.95;3.65;;;;;;;;;;5071974;28;20032;-80
2024/01/26 12:28:02;;;;;;;12.57;2.83;;;;;;;;;;5072141;28;20024;-79
2024/01/26 12:30:28;;;;;;;10.15;2.10;;;;;;;;;;5071763;28;20029;-79
2024/01/26 12:33:03;;;;;;;11.73;2.58;;;;;;;;;;5072718;28;20365;-79
2024/01/26 12:35:32;;;;;;;19.10;2.35;;;;;;;;;;5071834;28;20032;-79
2024/01/26 12:37:58;;;;;;;14.95;3.45;;;;;;;;;;5071312;28;20021;-81
2024/01/26 12:40:24;;;;;;;17.38;3.00;;;;;;;;;;5072143;28;20029;-79
2024/01/26 12:42:50;;;;;;;18.27;3.10;;;;;;;;;;5071764;28;20024;-79
2024/01/26 12:45:16;;;;;;;11.88;2.47;;;;;;;;;;5071872;28;20024;-79
2024/01/26 12:47:43;;;;;;;16.45;2.70;;;;;;;;;;5072562;28;20108;-79
2024/01/26 12:50:09;;;;;;;17.30;4.07;;;;;;;;;;5071188;28;20066;-79
2024/01/26 12:52:35;;;;;;;17.45;3.92;;;;;;;;;;5071526;28;20017;-80
2024/01/26 12:55:01;;;;;;;19.38;3.45;;;;;;;;;;5071406;28;20028;-89
2024/01/26 12:57:28;;;;;;;17.15;3.13;;;;;;;;;;5071270;28;20380;-82
2024/01/26 12:59:54;;;;;;;13.82;2.80;;;;;;;;;;5071367;28;20043;-79
2024/01/26 13:02:21;;;;;;;20.90;3.13;;;;;;;;;;5071146;28;20124;-79
2024/01/26 13:04:50;;;;;;;20.35;3.28;;;;;;;;;;5071226;28;20487;-79
2024/01/26 13:07:16;;;;;;;8.55;2.15;;;;;;;;;;5070966;28;20073;-79
2024/01/26 13:09:42;;;;;;;18.73;2.72;;;;;;;;;;5070950;28;20025;-79
2024/01/26 13:12:09;;;;;;;15.75;3.38;;;;;;;;;;5072428;28;20039;-79
2024/01/26 13:14:35;;;;;;;15.40;3.53;;;;;;;;;;5072892;28;20017;-78
2024/01/26 13:17:01;;;;;;;13.00;3.30;;;;;;;;;;5072637;28;20074;-78
2024/01/26 13:19:27;;;;;;;12.65;3.85;;;;;;;;;;5070825;28;20029;-79
2024/01/26 13:21:54;;;;;;;12.65;2.65;;;;;;;;;;5071541;28;20111;-83
2024/01/26 13:24:22;;;;;;;20.35;2.90;;;;;;;;;;5072518;28;20435;-79
2024/01/26 13:26:49;;;;;;;15.82;2.65;;;;;;;;;;5072819;28;20060;-79
2024/01/26 13:29:15;;;;;;;18.73;2.92;;;;;;;;;;5072099;28;20504;-79
2024/01/26 13:31:41;;;;;;;21.02;3.13;;;;;;;;;;5071263;28;20434;-79
2024/01/26 13:34:11;;;;;;;12.10;3.15;;;;;;;;;;5070903;28;20048;-79
2024/01/26 13:36:37;;;;;;;13.83;2.90;;;;;;;;;;5072260;28;20100;-80
2024/01/26 13:39:04;;;;;;;20.77;3.38;;;;;;;;;;5071419;28;20149;-78
2024/01/26 13:41:30;;;;;;;19.63;4.20;;;;;;;;;;5072201;28;20016;-80
2024/01/26 13:43:57;;;;;;;16.65;3.28;;;;;;;;;;5071144;28;20055;-79
2024/01/26 13:46:23;;;;;;;19.80;3.00;;;;;;;;;;5071202;28;20035;-79
2024/01/26 13:48:49;;;;;;;15.25;2.67;;;;;;;;;;5072314;28;20036;-79
2024/01/26 13:51:15;;;;;;;16.75;3.42;;;;;;;;;;5070942;28;20025;-79
2024/01/26 13:53:41;;;;;;;13.77;2.28;;;;;;;;;;5071220;28;20033;-79
2024/01/26 13:56:09;;;;;;;16.98;2.28;;;;;;;;;;5071062;28;20033;-79
2024/01/26 13:58:35;;;;;;;17.45;2.22;;;;;;;;;;5071129;28;20044;-79
2024/01/26 14:01:01;;;;;;;10.32;2.22;;;;;;;;;;5071281;28;20016;-80
2024/01/26 14:03:27;;;;;;;9.63;1.83;;;;;;;;;;5072525;28;20020;-79
2024/01/26 14:05:53;;;;;;;14.43;2.10;;;;;;;;;;5074728;28;20349;-79
2024/01/26 14:08:19;;;;;;;11.30;2.15;;;;;;;;;;5074705;28;20028;-78
2024/01/26 14:10:45;;;;;;;18.13;3.15;;;;;;;;;;5074783;28;20032;-78
2024/01/26 14:13:11;;;;;;;8.95;2.33;;;;;;;;;;5074648;28;20036;-78
2024/01/26 14:15:38;;;;;;;10.68;1.80;;;;;;;;;;5076760;28;20432;-77
2024/01/26 14:18:04;;;;;;;9.20;2.80;;;;;;;;;;5076263;28;20089;-77
2024/01/26 14:20:33;;;;;;;17.02;2.70;;;;;;;;;;5076327;28;20534;-77
2024/01/26 14:22:59;;;;;;;14.68;3.67;;;;;;;;;;5075284;28;20024;-77